sensor_id;sensor_type;location;lat;lon;timestamp;P1;durP1;ratioP1;P2;durP2;ratioP2
54787;SDS011;59598;48.112;16.280;2022-10-26T00:02:35;2.05;;;1.55;;
54787;SDS011;59598;48.112;16.280;2022-10-26T00:05:06;2.20;;;1.48;;
54787;SDS011;59598;48.112;16.280;2022-10-26T00:07:38;2.10;;;1.55;;
54787;SDS011;59598;48.112;16.280;2022-10-26T00:10:17;1.83;;;1.27;;
54787;SDS011;59598;48.112;16.280;2022-10-26T00:12:51;2.55;;;1.60;;
54787;SDS011;59598;48.112;16.280;2022-10-26T00:15:28;2.80;;;1.20;;
54787;SDS011;59598;48.112;16.280;2022-10-26T00:17:59;5.80;;;1.63;;
54787;SDS011;59598;48.112;16.280;2022-10-26T00:20:31;2.72;;;1.20;;
54787;SDS011;59598;48.112;16.280;2022-10-26T00:23:05;4.78;;;2.05;;
54787;SDS011;59598;48.112;16.280;2022-10-26T00:25:40;1.27;;;1.13;;
54787;SDS011;59598;48.112;16.280;2022-10-26T00:28:14;1.35;;;1.00;;
54787;SDS011;59598;48.112;16.280;2022-10-26T00:30:45;1.90;;;1.33;;
54787;SDS011;59598;48.112;16.280;2022-10-26T00:33:17;2.00;;;0.88;;
54787;SDS011;59598;48.112;16.280;2022-10-26T00:35:54;2.13;;;1.52;;
54787;SDS011;59598;48.112;16.280;2022-10-26T00:38:26;3.80;;;1.10;;
54787;SDS011;59598;48.112;16.280;2022-10-26T00:40:57;1.70;;;0.95;;
54787;SDS011;59598;48.112;16.280;2022-10-26T00:45:59;1.52;;;1.10;;
54787;SDS011;59598;48.112;16.280;2022-10-26T00:48:35;2.85;;;1.30;;
54787;SDS011;59598;48.112;16.280;2022-10-26T00:51:15;2.05;;;0.80;;
54787;SDS011;59598;48.112;16.280;2022-10-26T00:54:03;1.08;;;1.08;;
54787;SDS011;59598;48.112;16.280;2022-10-26T00:56:38;3.60;;;1.10;;
54787;SDS011;59598;48.112;16.280;2022-10-26T00:59:11;2.63;;;1.30;;
54787;SDS011;59598;48.112;16.280;2022-10-26T01:01:44;0.93;;;0.90;;
54787;SDS011;59598;48.112;16.280;2022-10-26T01:04:18;1.45;;;1.30;;
54787;SDS011;59598;48.112;16.280;2022-10-26T01:06:50;1.67;;;1.17;;
54787;SDS011;59598;48.112;16.280;2022-10-26T01:09:27;4.75;;;1.13;;
54787;SDS011;59598;48.112;16.280;2022-10-26T01:11:59;1.58;;;1.48;;
54787;SDS011;59598;48.112;16.280;2022-10-26T01:14:32;1.83;;;1.35;;
54787;SDS011;59598;48.112;16.280;2022-10-26T01:22:58;1.85;;;1.38;;
54787;SDS011;59598;48.112;16.280;2022-10-26T01:31:26;1.00;;;1.00;;
54787;SDS011;59598;48.112;16.280;2022-10-26T01:37:07;4.63;;;1.15;;
54787;SDS011;59598;48.112;16.280;2022-10-26T01:39:46;1.50;;;1.17;;
54787;SDS011;59598;48.112;16.280;2022-10-26T01:42:25;1.00;;;0.90;;
54787;SDS011;59598;48.112;16.280;2022-10-26T01:45:06;1.10;;;1.00;;
54787;SDS011;59598;48.112;16.280;2022-10-26T01:47:43;3.25;;;1.20;;
54787;SDS011;59598;48.112;16.280;2022-10-26T01:50:26;2.30;;;1.08;;
54787;SDS011;59598;48.112;16.280;2022-10-26T01:52:58;1.08;;;0.95;;
54787;SDS011;59598;48.112;16.280;2022-10-26T02:01:38;1.42;;;1.30;;
54787;SDS011;59598;48.112;16.280;2022-10-26T02:04:39;1.80;;;1.20;;
54787;SDS011;59598;48.112;16.280;2022-10-26T02:11:23;7.28;;;1.20;;
54787;SDS011;59598;48.112;16.280;2022-10-26T02:17:46;1.73;;;1.25;;
54787;SDS011;59598;48.112;16.280;2022-10-26T02:20:51;6.18;;;1.52;;
54787;SDS011;59598;48.112;16.280;2022-10-26T02:23:47;1.40;;;1.30;;
54787;SDS011;59598;48.112;16.280;2022-10-26T02:26:40;1.50;;;1.40;;
54787;SDS011;59598;48.112;16.280;2022-10-26T02:29:35;1.27;;;1.17;;
54787;SDS011;59598;48.112;16.280;2022-10-26T02:32:29;1.63;;;1.38;;
54787;SDS011;59598;48.112;16.280;2022-10-26T02:35:25;1.40;;;1.20;;
54787;SDS011;59598;48.112;16.280;2022-10-26T02:38:19;1.48;;;1.33;;
54787;SDS011;59598;48.112;16.280;2022-10-26T02:41:16;2.17;;;1.42;;
54787;SDS011;59598;48.112;16.280;2022-10-26T02:44:17;2.17;;;1.95;;
54787;SDS011;59598;48.112;16.280;2022-10-26T02:47:14;2.67;;;1.55;;
54787;SDS011;59598;48.112;16.280;2022-10-26T02:50:10;1.75;;;1.38;;
54787;SDS011;59598;48.112;16.280;2022-10-26T02:53:06;6.15;;;1.77;;
54787;SDS011;59598;48.112;16.280;2022-10-26T02:56:17;1.23;;;1.13;;
54787;SDS011;59598;48.112;16.280;2022-10-26T02:59:12;7.22;;;1.35;;
54787;SDS011;59598;48.112;16.280;2022-10-26T03:02:15;2.05;;;1.58;;
54787;SDS011;59598;48.112;16.280;2022-10-26T03:05:09;1.15;;;1.10;;
54787;SDS011;59598;48.112;16.280;2022-10-26T03:08:06;1.88;;;1.30;;
54787;SDS011;59598;48.112;16.280;2022-10-26T03:11:00;2.60;;;2.20;;
54787;SDS011;59598;48.112;16.280;2022-10-26T03:13:54;3.80;;;2.03;;
54787;SDS011;59598;48.112;16.280;2022-10-26T03:16:49;3.92;;;1.80;;
54787;SDS011;59598;48.112;16.280;2022-10-26T03:19:46;1.50;;;1.30;;
54787;SDS011;59598;48.112;16.280;2022-10-26T03:22:38;1.33;;;1.23;;
54787;SDS011;59598;48.112;16.280;2022-10-26T03:25:29;2.30;;;1.73;;
54787;SDS011;59598;48.112;16.280;2022-10-26T03:28:23;2.27;;;1.77;;
54787;SDS011;59598;48.112;16.280;2022-10-26T03:31:15;2.70;;;2.05;;
54787;SDS011;59598;48.112;16.280;2022-10-26T03:34:06;3.85;;;2.30;;
54787;SDS011;59598;48.112;16.280;2022-10-26T03:37:03;7.25;;;2.30;;
54787;SDS011;59598;48.112;16.280;2022-10-26T03:39:55;2.92;;;2.00;;
54787;SDS011;59598;48.112;16.280;2022-10-26T03:42:46;2.10;;;1.40;;
54787;SDS011;59598;48.112;16.280;2022-10-26T03:45:37;5.43;;;1.80;;
54787;SDS011;59598;48.112;16.280;2022-10-26T03:48:29;4.82;;;1.98;;
54787;SDS011;59598;48.112;16.280;2022-10-26T03:51:20;5.00;;;2.17;;
54787;SDS011;59598;48.112;16.280;2022-10-26T03:54:15;1.70;;;1.42;;
54787;SDS011;59598;48.112;16.280;2022-10-26T03:57:06;4.15;;;2.00;;
54787;SDS011;59598;48.112;16.280;2022-10-26T03:59:58;4.72;;;2.70;;
54787;SDS011;59598;48.112;16.280;2022-10-26T04:02:54;5.18;;;2.50;;
54787;SDS011;59598;48.112;16.280;2022-10-26T04:05:47;5.93;;;2.75;;
54787;SDS011;59598;48.112;16.280;2022-10-26T04:08:38;6.57;;;2.90;;
54787;SDS011;59598;48.112;16.280;2022-10-26T04:11:30;4.50;;;2.63;;
54787;SDS011;59598;48.112;16.280;2022-10-26T04:14:24;6.85;;;3.38;;
54787;SDS011;59598;48.112;16.280;2022-10-26T04:17:16;5.90;;;2.75;;
54787;SDS011;59598;48.112;16.280;2022-10-26T04:20:09;7.88;;;2.90;;
54787;SDS011;59598;48.112;16.280;2022-10-26T04:23:02;4.88;;;2.40;;
54787;SDS011;59598;48.112;16.280;2022-10-26T04:25:55;6.40;;;2.50;;
54787;SDS011;59598;48.112;16.280;2022-10-26T04:28:47;2.80;;;2.03;;
54787;SDS011;59598;48.112;16.280;2022-10-26T04:31:38;3.60;;;2.25;;
54787;SDS011;59598;48.112;16.280;2022-10-26T04:34:33;3.75;;;2.30;;
54787;SDS011;59598;48.112;16.280;2022-10-26T04:37:27;4.07;;;2.60;;
54787;SDS011;59598;48.112;16.280;2022-10-26T04:40:18;5.45;;;2.30;;
54787;SDS011;59598;48.112;16.280;2022-10-26T04:43:09;2.45;;;2.17;;
54787;SDS011;59598;48.112;16.280;2022-10-26T04:46:01;6.00;;;3.60;;
54787;SDS011;59598;48.112;16.280;2022-10-26T04:48:53;7.20;;;3.95;;
54787;SDS011;59598;48.112;16.280;2022-10-26T04:51:44;9.95;;;3.33;;
54787;SDS011;59598;48.112;16.280;2022-10-26T04:54:38;7.00;;;3.22;;
54787;SDS011;59598;48.112;16.280;2022-10-26T04:57:30;7.85;;;3.67;;
54787;SDS011;59598;48.112;16.280;2022-10-26T05:00:25;6.05;;;3.83;;
54787;SDS011;59598;48.112;16.280;2022-10-26T05:03:20;5.53;;;3.17;;
54787;SDS011;59598;48.112;16.280;2022-10-26T05:06:14;5.05;;;2.63;;
54787;SDS011;59598;48.112;16.280;2022-10-26T05:09:10;7.05;;;3.03;;
54787;SDS011;59598;48.112;16.280;2022-10-26T05:12:04;4.55;;;3.47;;
54787;SDS011;59598;48.112;16.280;2022-10-26T05:14:56;3.42;;;2.88;;
54787;SDS011;59598;48.112;16.280;2022-10-26T05:17:56;5.90;;;2.97;;
54787;SDS011;59598;48.112;16.280;2022-10-26T05:20:51;3.85;;;2.90;;
54787;SDS011;59598;48.112;16.280;2022-10-26T05:23:43;4.53;;;3.23;;
54787;SDS011;59598;48.112;16.280;2022-10-26T05:26:45;6.03;;;3.08;;
54787;SDS011;59598;48.112;16.280;2022-10-26T05:29:36;6.10;;;3.15;;
54787;SDS011;59598;48.112;16.280;2022-10-26T05:32:31;4.32;;;2.42;;
54787;SDS011;59598;48.112;16.280;2022-10-26T05:35:22;3.92;;;2.70;;
54787;SDS011;59598;48.112;16.280;2022-10-26T05:38:16;7.07;;;2.47;;
54787;SDS011;59598;48.112;16.280;2022-10-26T05:41:10;3.13;;;2.50;;
54787;SDS011;59598;48.112;16.280;2022-10-26T05:44:06;3.90;;;2.45;;
54787;SDS011;59598;48.112;16.280;2022-10-26T05:47:01;3.42;;;2.53;;
54787;SDS011;59598;48.112;16.280;2022-10-26T05:49:52;6.63;;;3.42;;
54787;SDS011;59598;48.112;16.280;2022-10-26T05:52:46;4.25;;;3.50;;
54787;SDS011;59598;48.112;16.280;2022-10-26T05:55:43;4.38;;;2.78;;
54787;SDS011;59598;48.112;16.280;2022-10-26T05:58:38;7.07;;;2.65;;
54787;SDS011;59598;48.112;16.280;2022-10-26T06:04:37;5.35;;;3.38;;
54787;SDS011;59598;48.112;16.280;2022-10-26T06:07:37;7.05;;;3.85;;
54787;SDS011;59598;48.112;16.280;2022-10-26T06:10:31;6.95;;;3.50;;
54787;SDS011;59598;48.112;16.280;2022-10-26T06:13:23;5.28;;;3.03;;
54787;SDS011;59598;48.112;16.280;2022-10-26T06:16:28;3.95;;;2.63;;
54787;SDS011;59598;48.112;16.280;2022-10-26T06:31:21;12.68;;;5.53;;
54787;SDS011;59598;48.112;16.280;2022-10-26T06:34:13;8.55;;;4.70;;
54787;SDS011;59598;48.112;16.280;2022-10-26T06:37:18;7.78;;;5.00;;
54787;SDS011;59598;48.112;16.280;2022-10-26T06:40:11;5.57;;;4.03;;
54787;SDS011;59598;48.112;16.280;2022-10-26T06:43:15;5.43;;;3.70;;
54787;SDS011;59598;48.112;16.280;2022-10-26T06:46:35;7.53;;;4.75;;
54787;SDS011;59598;48.112;16.280;2022-10-26T06:49:35;11.70;;;5.53;;
54787;SDS011;59598;48.112;16.280;2022-10-26T06:52:39;7.43;;;5.03;;
54787;SDS011;59598;48.112;16.280;2022-10-26T06:55:41;8.07;;;5.57;;
54787;SDS011;59598;48.112;16.280;2022-10-26T06:58:34;6.95;;;4.68;;
54787;SDS011;59598;48.112;16.280;2022-10-26T07:01:27;6.97;;;5.05;;
54787;SDS011;59598;48.112;16.280;2022-10-26T07:04:18;8.60;;;4.47;;
54787;SDS011;59598;48.112;16.280;2022-10-26T07:07:19;7.15;;;4.68;;
54787;SDS011;59598;48.112;16.280;2022-10-26T07:10:13;5.35;;;3.95;;
54787;SDS011;59598;48.112;16.280;2022-10-26T07:16:02;8.18;;;5.13;;
54787;SDS011;59598;48.112;16.280;2022-10-26T07:18:57;5.95;;;4.55;;
54787;SDS011;59598;48.112;16.280;2022-10-26T07:21:48;6.85;;;4.50;;
54787;SDS011;59598;48.112;16.280;2022-10-26T07:24:40;8.13;;;5.40;;
54787;SDS011;59598;48.112;16.280;2022-10-26T07:27:31;8.30;;;6.13;;
54787;SDS011;59598;48.112;16.280;2022-10-26T07:30:22;22.17;;;9.57;;
54787;SDS011;59598;48.112;16.280;2022-10-26T07:33:16;11.82;;;7.95;;
54787;SDS011;59598;48.112;16.280;2022-10-26T07:36:09;14.13;;;8.35;;
54787;SDS011;59598;48.112;16.280;2022-10-26T07:39:03;21.15;;;9.68;;
54787;SDS011;59598;48.112;16.280;2022-10-26T07:41:57;15.90;;;9.05;;
54787;SDS011;59598;48.112;16.280;2022-10-26T07:44:48;16.10;;;8.68;;
54787;SDS011;59598;48.112;16.280;2022-10-26T07:47:40;15.95;;;7.97;;
54787;SDS011;59598;48.112;16.280;2022-10-26T07:50:35;13.52;;;8.93;;
54787;SDS011;59598;48.112;16.280;2022-10-26T07:53:27;20.20;;;9.90;;
54787;SDS011;59598;48.112;16.280;2022-10-26T07:56:21;16.85;;;8.00;;
54787;SDS011;59598;48.112;16.280;2022-10-26T07:59:13;15.23;;;8.18;;
54787;SDS011;59598;48.112;16.280;2022-10-26T08:02:04;17.42;;;8.88;;
54787;SDS011;59598;48.112;16.280;2022-10-26T08:04:56;13.35;;;7.03;;
54787;SDS011;59598;48.112;16.280;2022-10-26T08:07:47;16.63;;;7.35;;
54787;SDS011;59598;48.112;16.280;2022-10-26T08:10:42;9.85;;;6.78;;
54787;SDS011;59598;48.112;16.280;2022-10-26T08:13:37;10.75;;;6.45;;
54787;SDS011;59598;48.112;16.280;2022-10-26T08:16:32;13.30;;;7.13;;
54787;SDS011;59598;48.112;16.280;2022-10-26T08:19:29;9.73;;;6.35;;
54787;SDS011;59598;48.112;16.280;2022-10-26T08:22:21;12.10;;;6.22;;
54787;SDS011;59598;48.112;16.280;2022-10-26T08:25:12;10.77;;;6.63;;
54787;SDS011;59598;48.112;16.280;2022-10-26T08:28:04;16.77;;;7.72;;
54787;SDS011;59598;48.112;16.280;2022-10-26T08:30:55;20.45;;;9.10;;
54787;SDS011;59598;48.112;16.280;2022-10-26T08:33:47;15.30;;;8.07;;
54787;SDS011;59598;48.112;16.280;2022-10-26T08:36:41;20.13;;;10.38;;
54787;SDS011;59598;48.112;16.280;2022-10-26T08:39:35;21.63;;;10.40;;
54787;SDS011;59598;48.112;16.280;2022-10-26T08:46:01;28.17;;;11.13;;
54787;SDS011;59598;48.112;16.280;2022-10-26T08:49:43;19.48;;;10.27;;
54787;SDS011;59598;48.112;16.280;2022-10-26T08:52:18;22.13;;;10.20;;
54787;SDS011;59598;48.112;16.280;2022-10-26T08:55:33;25.30;;;10.57;;
54787;SDS011;59598;48.112;16.280;2022-10-26T08:58:36;21.13;;;10.85;;
54787;SDS011;59598;48.112;16.280;2022-10-26T09:01:35;15.95;;;8.85;;
54787;SDS011;59598;48.112;16.280;2022-10-26T09:04:32;18.55;;;9.27;;
54787;SDS011;59598;48.112;16.280;2022-10-26T09:26:37;19.52;;;10.75;;
54787;SDS011;59598;48.112;16.280;2022-10-26T09:29:33;23.10;;;11.52;;
54787;SDS011;59598;48.112;16.280;2022-10-26T09:32:33;20.63;;;11.32;;
54787;SDS011;59598;48.112;16.280;2022-10-26T09:35:45;26.17;;;11.25;;
54787;SDS011;59598;48.112;16.280;2022-10-26T09:38:46;22.73;;;11.55;;
54787;SDS011;59598;48.112;16.280;2022-10-26T09:41:45;24.02;;;11.40;;
54787;SDS011;59598;48.112;16.280;2022-10-26T09:51:28;23.33;;;12.77;;
54787;SDS011;59598;48.112;16.280;2022-10-26T09:54:20;29.45;;;14.98;;
54787;SDS011;59598;48.112;16.280;2022-10-26T09:57:15;26.83;;;13.77;;
54787;SDS011;59598;48.112;16.280;2022-10-26T10:00:16;25.73;;;14.70;;
54787;SDS011;59598;48.112;16.280;2022-10-26T10:06:15;23.85;;;12.55;;
54787;SDS011;59598;48.112;16.280;2022-10-26T10:12:04;23.95;;;13.32;;
54787;SDS011;59598;48.112;16.280;2022-10-26T10:15:28;26.77;;;13.27;;
54787;SDS011;59598;48.112;16.280;2022-10-26T10:18:22;25.63;;;13.75;;
54787;SDS011;59598;48.112;16.280;2022-10-26T10:21:17;30.83;;;14.68;;
54787;SDS011;59598;48.112;16.280;2022-10-26T10:24:52;23.30;;;12.77;;
54787;SDS011;59598;48.112;16.280;2022-10-26T10:27:30;23.63;;;12.77;;
54787;SDS011;59598;48.112;16.280;2022-10-26T10:30:30;25.70;;;13.02;;
54787;SDS011;59598;48.112;16.280;2022-10-26T10:33:22;23.50;;;12.27;;
54787;SDS011;59598;48.112;16.280;2022-10-26T10:36:27;25.85;;;12.85;;
54787;SDS011;59598;48.112;16.280;2022-10-26T10:39:33;26.38;;;13.63;;
54787;SDS011;59598;48.112;16.280;2022-10-26T10:42:29;22.63;;;12.02;;
54787;SDS011;59598;48.112;16.280;2022-10-26T10:45:34;24.90;;;13.07;;
54787;SDS011;59598;48.112;16.280;2022-10-26T10:48:27;24.02;;;12.40;;
54787;SDS011;59598;48.112;16.280;2022-10-26T10:51:22;18.73;;;12.07;;
54787;SDS011;59598;48.112;16.280;2022-10-26T10:54:34;22.23;;;12.13;;
54787;SDS011;59598;48.112;16.280;2022-10-26T10:57:42;22.27;;;12.52;;
54787;SDS011;59598;48.112;16.280;2022-10-26T11:00:40;26.85;;;13.02;;
54787;SDS011;59598;48.112;16.280;2022-10-26T11:06:51;22.50;;;12.35;;
54787;SDS011;59598;48.112;16.280;2022-10-26T11:09:47;25.67;;;13.27;;
54787;SDS011;59598;48.112;16.280;2022-10-26T11:12:52;22.15;;;12.00;;
54787;SDS011;59598;48.112;16.280;2022-10-26T11:15:54;24.10;;;12.30;;
54787;SDS011;59598;48.112;16.280;2022-10-26T11:18:57;25.27;;;11.70;;
54787;SDS011;59598;48.112;16.280;2022-10-26T11:21:53;21.42;;;12.07;;
54787;SDS011;59598;48.112;16.280;2022-10-26T11:24:48;23.75;;;12.50;;
54787;SDS011;59598;48.112;16.280;2022-10-26T11:27:44;23.63;;;12.73;;
54787;SDS011;59598;48.112;16.280;2022-10-26T11:30:45;19.52;;;11.52;;
54787;SDS011;59598;48.112;16.280;2022-10-26T11:36:58;23.98;;;14.07;;
54787;SDS011;59598;48.112;16.280;2022-10-26T11:46:14;20.23;;;10.80;;
54787;SDS011;59598;48.112;16.280;2022-10-26T11:52:15;22.90;;;11.75;;
54787;SDS011;59598;48.112;16.280;2022-10-26T11:55:11;21.90;;;10.88;;
54787;SDS011;59598;48.112;16.280;2022-10-26T11:58:03;19.73;;;12.15;;
54787;SDS011;59598;48.112;16.280;2022-10-26T12:00:57;20.55;;;11.90;;
54787;SDS011;59598;48.112;16.280;2022-10-26T12:04:00;19.75;;;11.73;;
54787;SDS011;59598;48.112;16.280;2022-10-26T12:06:56;21.83;;;11.18;;
54787;SDS011;59598;48.112;16.280;2022-10-26T12:09:51;19.00;;;11.20;;
54787;SDS011;59598;48.112;16.280;2022-10-26T12:12:48;21.30;;;10.88;;
54787;SDS011;59598;48.112;16.280;2022-10-26T12:15:46;21.48;;;11.77;;
54787;SDS011;59598;48.112;16.280;2022-10-26T12:18:46;20.20;;;11.38;;
54787;SDS011;59598;48.112;16.280;2022-10-26T12:21:42;23.35;;;12.68;;
54787;SDS011;59598;48.112;16.280;2022-10-26T12:24:34;20.02;;;10.50;;
54787;SDS011;59598;48.112;16.280;2022-10-26T12:30:31;22.13;;;11.45;;
54787;SDS011;59598;48.112;16.280;2022-10-26T12:33:27;17.98;;;10.73;;
54787;SDS011;59598;48.112;16.280;2022-10-26T12:39:41;21.05;;;11.82;;
54787;SDS011;59598;48.112;16.280;2022-10-26T12:42:39;20.33;;;11.25;;
54787;SDS011;59598;48.112;16.280;2022-10-26T12:45:34;19.10;;;11.93;;
54787;SDS011;59598;48.112;16.280;2022-10-26T12:48:38;18.48;;;10.65;;
54787;SDS011;59598;48.112;16.280;2022-10-26T12:54:38;20.75;;;11.55;;
54787;SDS011;59598;48.112;16.280;2022-10-26T12:57:40;20.63;;;12.57;;
54787;SDS011;59598;48.112;16.280;2022-10-26T13:07:13;20.05;;;10.93;;
54787;SDS011;59598;48.112;16.280;2022-10-26T13:13:06;22.27;;;12.88;;
54787;SDS011;59598;48.112;16.280;2022-10-26T13:15:58;22.30;;;12.27;;
54787;SDS011;59598;48.112;16.280;2022-10-26T13:18:51;20.85;;;13.02;;
54787;SDS011;59598;48.112;16.280;2022-10-26T13:21:44;21.70;;;13.13;;
54787;SDS011;59598;48.112;16.280;2022-10-26T13:24:37;21.20;;;12.60;;
54787;SDS011;59598;48.112;16.280;2022-10-26T13:28:06;23.23;;;13.10;;
54787;SDS011;59598;48.112;16.280;2022-10-26T13:34:17;22.38;;;13.35;;
54787;SDS011;59598;48.112;16.280;2022-10-26T13:37:21;21.70;;;13.30;;
54787;SDS011;59598;48.112;16.280;2022-10-26T13:40:18;19.95;;;13.38;;
54787;SDS011;59598;48.112;16.280;2022-10-26T13:43:18;20.05;;;13.48;;
54787;SDS011;59598;48.112;16.280;2022-10-26T13:46:19;22.58;;;12.90;;
54787;SDS011;59598;48.112;16.280;2022-10-26T13:49:18;23.38;;;13.52;;
54787;SDS011;59598;48.112;16.280;2022-10-26T13:52:22;25.67;;;14.45;;
54787;SDS011;59598;48.112;16.280;2022-10-26T13:55:21;23.65;;;13.70;;
54787;SDS011;59598;48.112;16.280;2022-10-26T13:58:24;24.95;;;14.45;;
54787;SDS011;59598;48.112;16.280;2022-10-26T14:01:24;23.73;;;13.68;;
54787;SDS011;59598;48.112;16.280;2022-10-26T14:04:18;24.95;;;14.77;;
54787;SDS011;59598;48.112;16.280;2022-10-26T14:07:20;25.85;;;15.10;;
54787;SDS011;59598;48.112;16.280;2022-10-26T14:10:22;25.88;;;14.23;;
54787;SDS011;59598;48.112;16.280;2022-10-26T14:13:20;21.70;;;14.07;;
54787;SDS011;59598;48.112;16.280;2022-10-26T14:16:17;24.85;;;15.20;;
54787;SDS011;59598;48.112;16.280;2022-10-26T14:19:13;23.92;;;13.68;;
54787;SDS011;59598;48.112;16.280;2022-10-26T14:22:22;24.33;;;14.65;;
54787;SDS011;59598;48.112;16.280;2022-10-26T14:25:18;23.40;;;14.50;;
54787;SDS011;59598;48.112;16.280;2022-10-26T14:28:20;23.42;;;14.82;;
54787;SDS011;59598;48.112;16.280;2022-10-26T14:31:24;24.83;;;15.27;;
54787;SDS011;59598;48.112;16.280;2022-10-26T14:34:22;21.83;;;14.75;;
54787;SDS011;59598;48.112;16.280;2022-10-26T14:40:32;20.45;;;13.50;;
54787;SDS011;59598;48.112;16.280;2022-10-26T14:43:25;24.20;;;14.48;;
54787;SDS011;59598;48.112;16.280;2022-10-26T14:46:17;23.33;;;13.77;;
54787;SDS011;59598;48.112;16.280;2022-10-26T14:49:17;25.88;;;15.90;;
54787;SDS011;59598;48.112;16.280;2022-10-26T14:52:10;24.77;;;15.60;;
54787;SDS011;59598;48.112;16.280;2022-10-26T14:58:13;24.15;;;15.50;;
54787;SDS011;59598;48.112;16.280;2022-10-26T15:04:20;26.30;;;16.00;;
54787;SDS011;59598;48.112;16.280;2022-10-26T15:07:18;24.48;;;15.13;;
54787;SDS011;59598;48.112;16.280;2022-10-26T15:13:30;25.15;;;15.43;;
54787;SDS011;59598;48.112;16.280;2022-10-26T15:16:32;24.65;;;15.68;;
54787;SDS011;59598;48.112;16.280;2022-10-26T15:19:27;23.17;;;16.10;;
54787;SDS011;59598;48.112;16.280;2022-10-26T15:22:23;23.42;;;14.93;;
54787;SDS011;59598;48.112;16.280;2022-10-26T15:25:21;27.13;;;16.00;;
54787;SDS011;59598;48.112;16.280;2022-10-26T15:34:13;19.73;;;13.48;;
54787;SDS011;59598;48.112;16.280;2022-10-26T15:37:06;25.63;;;14.93;;
54787;SDS011;59598;48.112;16.280;2022-10-26T15:39:58;25.65;;;15.75;;
54787;SDS011;59598;48.112;16.280;2022-10-26T15:42:51;23.50;;;14.80;;
54787;SDS011;59598;48.112;16.280;2022-10-26T15:45:46;21.98;;;14.57;;
54787;SDS011;59598;48.112;16.280;2022-10-26T15:48:48;22.92;;;15.57;;
54787;SDS011;59598;48.112;16.280;2022-10-26T15:51:48;26.83;;;16.65;;
54787;SDS011;59598;48.112;16.280;2022-10-26T15:54:39;26.10;;;15.27;;
54787;SDS011;59598;48.112;16.280;2022-10-26T15:57:31;21.55;;;14.00;;
54787;SDS011;59598;48.112;16.280;2022-10-26T16:00:25;26.05;;;16.65;;
54787;SDS011;59598;48.112;16.280;2022-10-26T16:03:20;30.88;;;17.23;;
54787;SDS011;59598;48.112;16.280;2022-10-26T16:06:25;28.00;;;17.70;;
54787;SDS011;59598;48.112;16.280;2022-10-26T16:09:21;27.92;;;18.50;;
54787;SDS011;59598;48.112;16.280;2022-10-26T16:12:12;32.13;;;19.25;;
54787;SDS011;59598;48.112;16.280;2022-10-26T16:15:04;32.38;;;19.45;;
54787;SDS011;59598;48.112;16.280;2022-10-26T16:17:58;38.80;;;22.20;;
54787;SDS011;59598;48.112;16.280;2022-10-26T16:20:53;37.83;;;20.23;;
54787;SDS011;59598;48.112;16.280;2022-10-26T16:23:45;30.67;;;18.25;;
54787;SDS011;59598;48.112;16.280;2022-10-26T16:26:38;36.03;;;20.05;;
54787;SDS011;59598;48.112;16.280;2022-10-26T16:29:29;30.88;;;18.42;;
54787;SDS011;59598;48.112;16.280;2022-10-26T16:32:23;37.78;;;20.00;;
54787;SDS011;59598;48.112;16.280;2022-10-26T16:35:17;35.97;;;19.65;;
54787;SDS011;59598;48.112;16.280;2022-10-26T16:38:08;38.42;;;21.30;;
54787;SDS011;59598;48.112;16.280;2022-10-26T16:41:07;41.83;;;23.40;;
54787;SDS011;59598;48.112;16.280;2022-10-26T16:44:00;33.70;;;20.08;;
54787;SDS011;59598;48.112;16.280;2022-10-26T16:46:51;36.78;;;21.58;;
54787;SDS011;59598;48.112;16.280;2022-10-26T16:49:43;36.22;;;20.65;;
54787;SDS011;59598;48.112;16.280;2022-10-26T16:52:39;39.13;;;21.35;;
54787;SDS011;59598;48.112;16.280;2022-10-26T16:55:34;36.67;;;21.55;;
54787;SDS011;59598;48.112;16.280;2022-10-26T16:58:30;41.38;;;22.55;;
54787;SDS011;59598;48.112;16.280;2022-10-26T17:01:23;39.05;;;22.17;;
54787;SDS011;59598;48.112;16.280;2022-10-26T17:04:18;38.70;;;20.88;;
54787;SDS011;59598;48.112;16.280;2022-10-26T17:07:15;39.50;;;21.08;;
54787;SDS011;59598;48.112;16.280;2022-10-26T17:10:09;43.92;;;23.92;;
54787;SDS011;59598;48.112;16.280;2022-10-26T17:13:00;38.78;;;21.83;;
54787;SDS011;59598;48.112;16.280;2022-10-26T17:15:53;46.35;;;23.10;;
54787;SDS011;59598;48.112;16.280;2022-10-26T17:18:45;35.00;;;21.13;;
54787;SDS011;59598;48.112;16.280;2022-10-26T17:21:37;38.08;;;22.13;;
54787;SDS011;59598;48.112;16.280;2022-10-26T17:24:29;40.22;;;21.15;;
54787;SDS011;59598;48.112;16.280;2022-10-26T17:27:20;37.13;;;20.83;;
54787;SDS011;59598;48.112;16.280;2022-10-26T17:30:15;40.40;;;22.58;;
54787;SDS011;59598;48.112;16.280;2022-10-26T17:33:12;43.58;;;22.63;;
54787;SDS011;59598;48.112;16.280;2022-10-26T17:36:05;42.28;;;23.00;;
54787;SDS011;59598;48.112;16.280;2022-10-26T17:38:59;42.53;;;23.00;;
54787;SDS011;59598;48.112;16.280;2022-10-26T17:41:51;35.97;;;21.38;;
54787;SDS011;59598;48.112;16.280;2022-10-26T17:44:45;40.65;;;22.38;;
54787;SDS011;59598;48.112;16.280;2022-10-26T17:47:37;37.03;;;21.33;;
54787;SDS011;59598;48.112;16.280;2022-10-26T17:50:30;39.95;;;23.67;;
54787;SDS011;59598;48.112;16.280;2022-10-26T17:53:22;42.63;;;22.95;;
54787;SDS011;59598;48.112;16.280;2022-10-26T17:56:14;44.13;;;22.88;;
54787;SDS011;59598;48.112;16.280;2022-10-26T17:59:08;39.35;;;22.85;;
54787;SDS011;59598;48.112;16.280;2022-10-26T18:02:01;37.45;;;21.88;;
54787;SDS011;59598;48.112;16.280;2022-10-26T18:04:53;47.53;;;23.40;;
54787;SDS011;59598;48.112;16.280;2022-10-26T18:07:49;42.10;;;22.73;;
54787;SDS011;59598;48.112;16.280;2022-10-26T18:10:47;48.53;;;22.35;;
54787;SDS011;59598;48.112;16.280;2022-10-26T18:13:43;40.38;;;22.63;;
54787;SDS011;59598;48.112;16.280;2022-10-26T18:16:37;45.03;;;24.05;;
54787;SDS011;59598;48.112;16.280;2022-10-26T18:19:34;43.50;;;23.85;;
54787;SDS011;59598;48.112;16.280;2022-10-26T18:22:30;47.50;;;23.10;;
54787;SDS011;59598;48.112;16.280;2022-10-26T18:25:22;40.88;;;23.33;;
54787;SDS011;59598;48.112;16.280;2022-10-26T18:28:23;40.10;;;21.88;;
54787;SDS011;59598;48.112;16.280;2022-10-26T18:31:18;47.35;;;25.15;;
54787;SDS011;59598;48.112;16.280;2022-10-26T18:34:14;42.30;;;23.85;;
54787;SDS011;59598;48.112;16.280;2022-10-26T18:37:10;44.67;;;23.98;;
54787;SDS011;59598;48.112;16.280;2022-10-26T18:40:02;40.63;;;22.95;;
54787;SDS011;59598;48.112;16.280;2022-10-26T18:42:57;47.85;;;24.85;;
54787;SDS011;59598;48.112;16.280;2022-10-26T18:45:49;45.70;;;24.40;;
54787;SDS011;59598;48.112;16.280;2022-10-26T18:48:41;46.67;;;24.75;;
54787;SDS011;59598;48.112;16.280;2022-10-26T18:51:33;42.83;;;24.70;;
54787;SDS011;59598;48.112;16.280;2022-10-26T18:54:25;42.58;;;23.70;;
54787;SDS011;59598;48.112;16.280;2022-10-26T18:57:20;40.08;;;21.73;;
54787;SDS011;59598;48.112;16.280;2022-10-26T19:00:17;45.10;;;23.55;;
54787;SDS011;59598;48.112;16.280;2022-10-26T19:03:08;38.78;;;21.30;;
54787;SDS011;59598;48.112;16.280;2022-10-26T19:06:16;42.53;;;24.08;;
54787;SDS011;59598;48.112;16.280;2022-10-26T19:09:23;35.85;;;20.50;;
54787;SDS011;59598;48.112;16.280;2022-10-26T19:12:15;38.90;;;21.75;;
54787;SDS011;59598;48.112;16.280;2022-10-26T19:15:07;44.03;;;23.45;;
54787;SDS011;59598;48.112;16.280;2022-10-26T19:18:01;43.28;;;23.42;;